sensor_id;sensor_type;location;lat;lon;timestamp;P1;durP1;ratioP1;P2;durP2;ratioP2
43883;SDS011;29544;52.018;5.810;2022-08-16T00:00:04;6.90;;;4.75;;
43883;SDS011;29544;52.018;5.810;2022-08-16T00:02:32;7.13;;;4.55;;
43883;SDS011;29544;52.018;5.810;2022-08-16T00:04:58;8.18;;;4.40;;
43883;SDS011;29544;52.018;5.810;2022-08-16T00:09:50;8.43;;;4.88;;
43883;SDS011;29544;52.018;5.810;2022-08-16T00:12:15;6.47;;;4.65;;
43883;SDS011;29544;52.018;5.810;2022-08-16T00:14:41;6.28;;;4.40;;
43883;SDS011;29544;52.018;5.810;2022-08-16T00:17:07;6.22;;;4.30;;
43883;SDS011;29544;52.018;5.810;2022-08-16T00:19:33;8.48;;;4.45;;
43883;SDS011;29544;52.018;5.810;2022-08-16T00:21:59;5.30;;;4.45;;
43883;SDS011;29544;52.018;5.810;2022-08-16T00:24:25;6.03;;;4.75;;
43883;SDS011;29544;52.018;5.810;2022-08-16T00:26:52;8.15;;;4.70;;
43883;SDS011;29544;52.018;5.810;2022-08-16T00:29:18;6.90;;;4.43;;
43883;SDS011;29544;52.018;5.810;2022-08-16T00:31:44;7.75;;;4.80;;
43883;SDS011;29544;52.018;5.810;2022-08-16T00:34:12;7.20;;;4.80;;
43883;SDS011;29544;52.018;5.810;2022-08-16T00:36:38;8.05;;;4.60;;
43883;SDS011;29544;52.018;5.810;2022-08-16T00:39:04;6.57;;;4.72;;
43883;SDS011;29544;52.018;5.810;2022-08-16T00:41:30;5.10;;;4.40;;
43883;SDS011;29544;52.018;5.810;2022-08-16T00:43:58;5.82;;;4.50;;
43883;SDS011;29544;52.018;5.810;2022-08-16T00:46:34;7.00;;;4.10;;
43883;SDS011;29544;52.018;5.810;2022-08-16T00:49:04;6.57;;;4.43;;
43883;SDS011;29544;52.018;5.810;2022-08-16T00:51:32;7.05;;;4.70;;
43883;SDS011;29544;52.018;5.810;2022-08-16T00:53:58;6.97;;;4.43;;
43883;SDS011;29544;52.018;5.810;2022-08-16T00:56:26;5.03;;;4.25;;
43883;SDS011;29544;52.018;5.810;2022-08-16T00:58:55;5.90;;;4.10;;
43883;SDS011;29544;52.018;5.810;2022-08-16T01:01:21;9.13;;;4.68;;
43883;SDS011;29544;52.018;5.810;2022-08-16T01:03:47;6.40;;;4.45;;
43883;SDS011;29544;52.018;5.810;2022-08-16T01:06:17;6.70;;;4.70;;
43883;SDS011;29544;52.018;5.810;2022-08-16T01:08:44;6.43;;;4.28;;
43883;SDS011;29544;52.018;5.810;2022-08-16T01:11:13;5.90;;;4.38;;
43883;SDS011;29544;52.018;5.810;2022-08-16T01:13:39;5.57;;;4.60;;
43883;SDS011;29544;52.018;5.810;2022-08-16T01:16:14;7.18;;;4.38;;
43883;SDS011;29544;52.018;5.810;2022-08-16T01:18:49;6.75;;;4.43;;
43883;SDS011;29544;52.018;5.810;2022-08-16T01:24:30;6.60;;;4.50;;
43883;SDS011;29544;52.018;5.810;2022-08-16T01:27:08;7.10;;;4.55;;
43883;SDS011;29544;52.018;5.810;2022-08-16T01:29:47;5.85;;;4.70;;
43883;SDS011;29544;52.018;5.810;2022-08-16T01:32:18;7.68;;;5.13;;
43883;SDS011;29544;52.018;5.810;2022-08-16T01:34:44;5.32;;;4.45;;
43883;SDS011;29544;52.018;5.810;2022-08-16T01:37:10;4.72;;;4.22;;
43883;SDS011;29544;52.018;5.810;2022-08-16T01:39:37;7.18;;;4.90;;
43883;SDS011;29544;52.018;5.810;2022-08-16T01:42:04;6.05;;;4.60;;
43883;SDS011;29544;52.018;5.810;2022-08-16T01:44:31;6.05;;;4.47;;
43883;SDS011;29544;52.018;5.810;2022-08-16T01:46:57;6.57;;;4.72;;
43883;SDS011;29544;52.018;5.810;2022-08-16T01:49:25;6.78;;;4.68;;
43883;SDS011;29544;52.018;5.810;2022-08-16T01:52:06;7.65;;;4.57;;
43883;SDS011;29544;52.018;5.810;2022-08-16T01:54:35;6.63;;;4.40;;
43883;SDS011;29544;52.018;5.810;2022-08-16T01:57:01;7.47;;;5.45;;
43883;SDS011;29544;52.018;5.810;2022-08-16T02:01:54;5.85;;;4.53;;
43883;SDS011;29544;52.018;5.810;2022-08-16T02:04:21;7.55;;;4.93;;
43883;SDS011;29544;52.018;5.810;2022-08-16T02:06:49;6.40;;;4.80;;
43883;SDS011;29544;52.018;5.810;2022-08-16T02:09:16;7.63;;;4.68;;
43883;SDS011;29544;52.018;5.810;2022-08-16T02:11:44;5.28;;;4.63;;
43883;SDS011;29544;52.018;5.810;2022-08-16T02:14:12;8.02;;;4.53;;
43883;SDS011;29544;52.018;5.810;2022-08-16T02:16:37;7.43;;;5.00;;
43883;SDS011;29544;52.018;5.810;2022-08-16T02:19:04;6.32;;;4.60;;
43883;SDS011;29544;52.018;5.810;2022-08-16T02:21:30;8.13;;;4.65;;
43883;SDS011;29544;52.018;5.810;2022-08-16T02:23:56;5.88;;;4.40;;
43883;SDS011;29544;52.018;5.810;2022-08-16T02:26:22;9.98;;;4.85;;
43883;SDS011;29544;52.018;5.810;2022-08-16T02:28:47;8.23;;;4.88;;
43883;SDS011;29544;52.018;5.810;2022-08-16T02:31:13;6.57;;;4.97;;
43883;SDS011;29544;52.018;5.810;2022-08-16T02:33:39;6.68;;;5.00;;
43883;SDS011;29544;52.018;5.810;2022-08-16T02:36:06;7.22;;;5.20;;
43883;SDS011;29544;52.018;5.810;2022-08-16T02:38:33;8.15;;;5.22;;
43883;SDS011;29544;52.018;5.810;2022-08-16T02:40:59;7.22;;;4.63;;
43883;SDS011;29544;52.018;5.810;2022-08-16T02:43:28;7.97;;;5.10;;
43883;SDS011;29544;52.018;5.810;2022-08-16T02:45:55;6.30;;;4.95;;
43883;SDS011;29544;52.018;5.810;2022-08-16T02:50:47;7.07;;;4.93;;
43883;SDS011;29544;52.018;5.810;2022-08-16T02:55:39;5.43;;;4.70;;
43883;SDS011;29544;52.018;5.810;2022-08-16T02:58:04;7.22;;;4.80;;
43883;SDS011;29544;52.018;5.810;2022-08-16T03:00:30;7.00;;;5.03;;
43883;SDS011;29544;52.018;5.810;2022-08-16T03:02:56;5.30;;;4.80;;
43883;SDS011;29544;52.018;5.810;2022-08-16T03:05:22;7.55;;;5.18;;
43883;SDS011;29544;52.018;5.810;2022-08-16T03:07:48;6.15;;;4.65;;
43883;SDS011;29544;52.018;5.810;2022-08-16T03:10:14;5.90;;;4.70;;
43883;SDS011;29544;52.018;5.810;2022-08-16T03:12:40;7.22;;;4.90;;
43883;SDS011;29544;52.018;5.810;2022-08-16T03:15:08;7.10;;;5.18;;
43883;SDS011;29544;52.018;5.810;2022-08-16T03:17:36;7.95;;;4.95;;
43883;SDS011;29544;52.018;5.810;2022-08-16T03:20:05;6.65;;;4.95;;
43883;SDS011;29544;52.018;5.810;2022-08-16T03:22:32;9.40;;;4.97;;
43883;SDS011;29544;52.018;5.810;2022-08-16T03:24:59;5.57;;;4.75;;
43883;SDS011;29544;52.018;5.810;2022-08-16T03:27:29;8.40;;;5.07;;
43883;SDS011;29544;52.018;5.810;2022-08-16T03:29:55;9.23;;;5.05;;
43883;SDS011;29544;52.018;5.810;2022-08-16T03:32:21;7.07;;;5.32;;
43883;SDS011;29544;52.018;5.810;2022-08-16T03:34:46;8.30;;;5.70;;
43883;SDS011;29544;52.018;5.810;2022-08-16T03:37:12;9.00;;;5.05;;
43883;SDS011;29544;52.018;5.810;2022-08-16T03:39:38;7.70;;;5.20;;
43883;SDS011;29544;52.018;5.810;2022-08-16T03:42:04;9.90;;;5.13;;
43883;SDS011;29544;52.018;5.810;2022-08-16T03:44:30;7.13;;;4.75;;
43883;SDS011;29544;52.018;5.810;2022-08-16T03:46:56;10.40;;;5.75;;
43883;SDS011;29544;52.018;5.810;2022-08-16T03:49:22;7.50;;;4.90;;
43883;SDS011;29544;52.018;5.810;2022-08-16T03:51:48;7.00;;;5.18;;
43883;SDS011;29544;52.018;5.810;2022-08-16T03:54:13;5.47;;;4.80;;
43883;SDS011;29544;52.018;5.810;2022-08-16T03:56:39;7.50;;;5.13;;
43883;SDS011;29544;52.018;5.810;2022-08-16T03:59:06;6.32;;;4.85;;
43883;SDS011;29544;52.018;5.810;2022-08-16T04:01:32;9.82;;;5.60;;
43883;SDS011;29544;52.018;5.810;2022-08-16T04:03:57;9.20;;;5.20;;
43883;SDS011;29544;52.018;5.810;2022-08-16T04:06:23;8.00;;;5.55;;
43883;SDS011;29544;52.018;5.810;2022-08-16T04:08:49;6.45;;;4.70;;
43883;SDS011;29544;52.018;5.810;2022-08-16T04:11:15;7.20;;;5.28;;
43883;SDS011;29544;52.018;5.810;2022-08-16T04:13:40;7.00;;;5.35;;
43883;SDS011;29544;52.018;5.810;2022-08-16T04:16:06;8.10;;;5.07;;
43883;SDS011;29544;52.018;5.810;2022-08-16T04:18:33;7.90;;;5.85;;
43883;SDS011;29544;52.018;5.810;2022-08-16T04:21:00;8.88;;;5.70;;
43883;SDS011;29544;52.018;5.810;2022-08-16T04:23:26;7.30;;;5.85;;
43883;SDS011;29544;52.018;5.810;2022-08-16T04:25:52;7.43;;;5.32;;
43883;SDS011;29544;52.018;5.810;2022-08-16T04:28:18;8.43;;;5.75;;
43883;SDS011;29544;52.018;5.810;2022-08-16T04:30:43;7.47;;;6.28;;
43883;SDS011;29544;52.018;5.810;2022-08-16T04:33:09;8.23;;;5.47;;
43883;SDS011;29544;52.018;5.810;2022-08-16T04:35:35;8.27;;;6.55;;
43883;SDS011;29544;52.018;5.810;2022-08-16T04:38:01;9.32;;;6.22;;
43883;SDS011;29544;52.018;5.810;2022-08-16T04:40:29;8.68;;;5.95;;
43883;SDS011;29544;52.018;5.810;2022-08-16T04:42:54;7.97;;;6.43;;
43883;SDS011;29544;52.018;5.810;2022-08-16T04:45:20;8.20;;;6.88;;
43883;SDS011;29544;52.018;5.810;2022-08-16T04:47:48;8.23;;;6.68;;
43883;SDS011;29544;52.018;5.810;2022-08-16T04:50:15;7.77;;;6.70;;
43883;SDS011;29544;52.018;5.810;2022-08-16T04:52:46;7.15;;;6.25;;
43883;SDS011;29544;52.018;5.810;2022-08-16T04:55:15;10.52;;;6.93;;
43883;SDS011;29544;52.018;5.810;2022-08-16T04:57:43;8.57;;;6.72;;
43883;SDS011;29544;52.018;5.810;2022-08-16T05:02:38;9.40;;;6.45;;
43883;SDS011;29544;52.018;5.810;2022-08-16T05:05:04;13.90;;;8.88;;
43883;SDS011;29544;52.018;5.810;2022-08-16T05:09:56;11.25;;;7.43;;
43883;SDS011;29544;52.018;5.810;2022-08-16T05:12:21;8.43;;;7.07;;
43883;SDS011;29544;52.018;5.810;2022-08-16T05:14:47;8.60;;;7.30;;
43883;SDS011;29544;52.018;5.810;2022-08-16T05:17:13;9.98;;;7.85;;
43883;SDS011;29544;52.018;5.810;2022-08-16T05:19:38;12.97;;;7.63;;
43883;SDS011;29544;52.018;5.810;2022-08-16T05:22:04;11.02;;;7.85;;
43883;SDS011;29544;52.018;5.810;2022-08-16T05:24:30;9.93;;;8.00;;
43883;SDS011;29544;52.018;5.810;2022-08-16T05:26:55;9.30;;;7.90;;
43883;SDS011;29544;52.018;5.810;2022-08-16T05:29:21;9.27;;;8.07;;
43883;SDS011;29544;52.018;5.810;2022-08-16T05:31:46;12.35;;;8.05;;
43883;SDS011;29544;52.018;5.810;2022-08-16T05:34:12;8.00;;;6.80;;
43883;SDS011;29544;52.018;5.810;2022-08-16T05:36:38;10.23;;;7.65;;
43883;SDS011;29544;52.018;5.810;2022-08-16T05:39:07;13.15;;;9.93;;
43883;SDS011;29544;52.018;5.810;2022-08-16T05:41:33;13.77;;;11.60;;
43883;SDS011;29544;52.018;5.810;2022-08-16T05:43:59;12.02;;;9.55;;
43883;SDS011;29544;52.018;5.810;2022-08-16T05:46:24;13.70;;;11.43;;
43883;SDS011;29544;52.018;5.810;2022-08-16T05:48:50;13.52;;;9.60;;
43883;SDS011;29544;52.018;5.810;2022-08-16T05:51:16;9.88;;;8.23;;
43883;SDS011;29544;52.018;5.810;2022-08-16T05:53:43;17.00;;;13.50;;
43883;SDS011;29544;52.018;5.810;2022-08-16T05:56:09;14.43;;;11.98;;
43883;SDS011;29544;52.018;5.810;2022-08-16T05:58:36;15.63;;;11.32;;
43883;SDS011;29544;52.018;5.810;2022-08-16T06:01:02;12.20;;;9.00;;
43883;SDS011;29544;52.018;5.810;2022-08-16T06:03:28;11.80;;;9.65;;
43883;SDS011;29544;52.018;5.810;2022-08-16T06:05:54;12.98;;;11.02;;
43883;SDS011;29544;52.018;5.810;2022-08-16T06:08:19;10.87;;;9.63;;
43883;SDS011;29544;52.018;5.810;2022-08-16T06:10:45;12.33;;;9.07;;
43883;SDS011;29544;52.018;5.810;2022-08-16T06:13:11;24.10;;;15.00;;
43883;SDS011;29544;52.018;5.810;2022-08-16T06:15:36;16.57;;;13.43;;
43883;SDS011;29544;52.018;5.810;2022-08-16T06:18:02;14.57;;;11.68;;
43883;SDS011;29544;52.018;5.810;2022-08-16T06:20:29;19.13;;;17.00;;
43883;SDS011;29544;52.018;5.810;2022-08-16T06:22:55;17.90;;;13.50;;
43883;SDS011;29544;52.018;5.810;2022-08-16T06:25:21;24.50;;;17.55;;
43883;SDS011;29544;52.018;5.810;2022-08-16T06:27:49;16.85;;;12.60;;
43883;SDS011;29544;52.018;5.810;2022-08-16T06:30:16;20.45;;;17.25;;
43883;SDS011;29544;52.018;5.810;2022-08-16T06:32:41;17.77;;;14.55;;
43883;SDS011;29544;52.018;5.810;2022-08-16T06:35:07;22.67;;;20.30;;
43883;SDS011;29544;52.018;5.810;2022-08-16T06:37:34;21.48;;;17.73;;
43883;SDS011;29544;52.018;5.810;2022-08-16T06:39:59;19.83;;;17.63;;
43883;SDS011;29544;52.018;5.810;2022-08-16T06:42:25;16.02;;;13.80;;
43883;SDS011;29544;52.018;5.810;2022-08-16T06:44:52;25.10;;;18.00;;
43883;SDS011;29544;52.018;5.810;2022-08-16T06:47:17;23.37;;;21.00;;
43883;SDS011;29544;52.018;5.810;2022-08-16T06:49:43;23.00;;;16.77;;
43883;SDS011;29544;52.018;5.810;2022-08-16T06:52:09;25.85;;;19.15;;
43883;SDS011;29544;52.018;5.810;2022-08-16T06:54:35;25.83;;;18.30;;
43883;SDS011;29544;52.018;5.810;2022-08-16T06:57:01;25.65;;;22.15;;
43883;SDS011;29544;52.018;5.810;2022-08-16T07:01:53;25.27;;;21.00;;
43883;SDS011;29544;52.018;5.810;2022-08-16T07:04:18;25.42;;;22.75;;
43883;SDS011;29544;52.018;5.810;2022-08-16T07:06:44;27.08;;;24.17;;
43883;SDS011;29544;52.018;5.810;2022-08-16T07:09:13;27.20;;;19.15;;
43883;SDS011;29544;52.018;5.810;2022-08-16T07:11:39;22.05;;;19.75;;
43883;SDS011;29544;52.018;5.810;2022-08-16T07:14:05;22.00;;;19.58;;
43883;SDS011;29544;52.018;5.810;2022-08-16T07:16:31;25.98;;;20.17;;
43883;SDS011;29544;52.018;5.810;2022-08-16T07:18:57;15.05;;;11.43;;
43883;SDS011;29544;52.018;5.810;2022-08-16T07:21:23;13.57;;;10.15;;
43883;SDS011;29544;52.018;5.810;2022-08-16T07:23:49;12.65;;;9.90;;
43883;SDS011;29544;52.018;5.810;2022-08-16T07:26:22;12.67;;;9.70;;
43883;SDS011;29544;52.018;5.810;2022-08-16T07:28:49;12.32;;;9.13;;
43883;SDS011;29544;52.018;5.810;2022-08-16T07:31:15;10.32;;;8.77;;
43883;SDS011;29544;52.018;5.810;2022-08-16T07:36:09;11.63;;;7.78;;
43883;SDS011;29544;52.018;5.810;2022-08-16T07:38:36;9.43;;;7.97;;
43883;SDS011;29544;52.018;5.810;2022-08-16T07:41:02;9.43;;;7.72;;
43883;SDS011;29544;52.018;5.810;2022-08-16T07:43:29;11.48;;;7.10;;
43883;SDS011;29544;52.018;5.810;2022-08-16T07:45:55;9.88;;;6.63;;
43883;SDS011;29544;52.018;5.810;2022-08-16T07:48:21;7.15;;;6.00;;
43883;SDS011;29544;52.018;5.810;2022-08-16T07:50:46;8.18;;;6.35;;
43883;SDS011;29544;52.018;5.810;2022-08-16T07:53:12;9.77;;;6.80;;
43883;SDS011;29544;52.018;5.810;2022-08-16T07:55:39;8.82;;;6.28;;
43883;SDS011;29544;52.018;5.810;2022-08-16T08:00:31;8.02;;;6.20;;
43883;SDS011;29544;52.018;5.810;2022-08-16T08:02:58;9.10;;;6.07;;
43883;SDS011;29544;52.018;5.810;2022-08-16T08:05:24;10.65;;;6.43;;
43883;SDS011;29544;52.018;5.810;2022-08-16T08:07:50;7.57;;;6.38;;
43883;SDS011;29544;52.018;5.810;2022-08-16T08:10:19;10.90;;;5.88;;
43883;SDS011;29544;52.018;5.810;2022-08-16T08:12:47;8.88;;;5.65;;
43883;SDS011;29544;52.018;5.810;2022-08-16T08:15:13;7.53;;;5.78;;
43883;SDS011;29544;52.018;5.810;2022-08-16T08:17:40;7.05;;;5.90;;
43883;SDS011;29544;52.018;5.810;2022-08-16T08:20:06;7.63;;;5.95;;
43883;SDS011;29544;52.018;5.810;2022-08-16T08:22:35;8.75;;;5.88;;
43883;SDS011;29544;52.018;5.810;2022-08-16T08:27:27;8.43;;;5.53;;
43883;SDS011;29544;52.018;5.810;2022-08-16T08:29:53;7.88;;;5.38;;
43883;SDS011;29544;52.018;5.810;2022-08-16T08:32:18;10.00;;;6.03;;
43883;SDS011;29544;52.018;5.810;2022-08-16T08:34:45;7.35;;;5.35;;
43883;SDS011;29544;52.018;5.810;2022-08-16T08:37:11;7.60;;;5.53;;
43883;SDS011;29544;52.018;5.810;2022-08-16T08:39:38;8.98;;;5.45;;
43883;SDS011;29544;52.018;5.810;2022-08-16T08:42:04;6.07;;;5.38;;
43883;SDS011;29544;52.018;5.810;2022-08-16T08:44:30;11.50;;;6.13;;
43883;SDS011;29544;52.018;5.810;2022-08-16T08:47:01;6.93;;;5.88;;
43883;SDS011;29544;52.018;5.810;2022-08-16T08:49:30;8.05;;;5.40;;
43883;SDS011;29544;52.018;5.810;2022-08-16T08:51:56;8.40;;;5.28;;
43883;SDS011;29544;52.018;5.810;2022-08-16T08:54:22;11.35;;;5.85;;
43883;SDS011;29544;52.018;5.810;2022-08-16T08:56:50;8.18;;;5.70;;
43883;SDS011;29544;52.018;5.810;2022-08-16T08:59:19;7.10;;;5.07;;
43883;SDS011;29544;52.018;5.810;2022-08-16T09:01:46;9.40;;;5.45;;
43883;SDS011;29544;52.018;5.810;2022-08-16T09:04:12;6.80;;;5.40;;
43883;SDS011;29544;52.018;5.810;2022-08-16T09:06:38;6.57;;;5.47;;
43883;SDS011;29544;52.018;5.810;2022-08-16T09:09:06;9.80;;;5.50;;
43883;SDS011;29544;52.018;5.810;2022-08-16T09:11:33;8.40;;;5.00;;
43883;SDS011;29544;52.018;5.810;2022-08-16T09:14:00;7.38;;;5.30;;
43883;SDS011;29544;52.018;5.810;2022-08-16T09:16:26;8.30;;;5.15;;
43883;SDS011;29544;52.018;5.810;2022-08-16T09:18:52;6.03;;;4.90;;
43883;SDS011;29544;52.018;5.810;2022-08-16T09:21:17;10.70;;;5.90;;
43883;SDS011;29544;52.018;5.810;2022-08-16T09:23:44;6.90;;;5.00;;
43883;SDS011;29544;52.018;5.810;2022-08-16T09:26:11;7.90;;;5.68;;
43883;SDS011;29544;52.018;5.810;2022-08-16T09:28:39;7.00;;;4.85;;
43883;SDS011;29544;52.018;5.810;2022-08-16T09:33:32;7.55;;;5.15;;
43883;SDS011;29544;52.018;5.810;2022-08-16T09:35:58;7.35;;;5.10;;
43883;SDS011;29544;52.018;5.810;2022-08-16T09:38:24;7.13;;;5.15;;
43883;SDS011;29544;52.018;5.810;2022-08-16T09:43:17;7.00;;;4.75;;
43883;SDS011;29544;52.018;5.810;2022-08-16T09:45:45;9.15;;;6.28;;
43883;SDS011;29544;52.018;5.810;2022-08-16T09:48:12;7.00;;;5.30;;
43883;SDS011;29544;52.018;5.810;2022-08-16T09:50:39;8.85;;;4.78;;
43883;SDS011;29544;52.018;5.810;2022-08-16T09:53:09;5.90;;;5.30;;
43883;SDS011;29544;52.018;5.810;2022-08-16T09:55:40;6.75;;;5.18;;
43883;SDS011;29544;52.018;5.810;2022-08-16T09:58:07;6.13;;;5.00;;
43883;SDS011;29544;52.018;5.810;2022-08-16T10:00:33;7.10;;;4.57;;
43883;SDS011;29544;52.018;5.810;2022-08-16T10:02:59;8.68;;;4.90;;
43883;SDS011;29544;52.018;5.810;2022-08-16T10:05:25;5.90;;;4.90;;
43883;SDS011;29544;52.018;5.810;2022-08-16T10:07:51;6.88;;;4.38;;
43883;SDS011;29544;52.018;5.810;2022-08-16T10:10:20;5.38;;;4.80;;
43883;SDS011;29544;52.018;5.810;2022-08-16T10:12:46;6.93;;;4.57;;
43883;SDS011;29544;52.018;5.810;2022-08-16T10:15:31;5.85;;;4.63;;
43883;SDS011;29544;52.018;5.810;2022-08-16T10:17:58;9.00;;;5.22;;
43883;SDS011;29544;52.018;5.810;2022-08-16T10:20:24;6.72;;;5.57;;
43883;SDS011;29544;52.018;5.810;2022-08-16T10:22:51;5.78;;;4.65;;
43883;SDS011;29544;52.018;5.810;2022-08-16T10:25:18;5.70;;;5.05;;
43883;SDS011;29544;52.018;5.810;2022-08-16T10:27:45;5.88;;;5.13;;
43883;SDS011;29544;52.018;5.810;2022-08-16T10:30:11;9.40;;;5.25;;
43883;SDS011;29544;52.018;5.810;2022-08-16T10:32:38;7.38;;;4.90;;
43883;SDS011;29544;52.018;5.810;2022-08-16T10:35:04;7.13;;;5.20;;
43883;SDS011;29544;52.018;5.810;2022-08-16T10:39:56;9.45;;;5.25;;
43883;SDS011;29544;52.018;5.810;2022-08-16T10:42:22;10.43;;;5.10;;
43883;SDS011;29544;52.018;5.810;2022-08-16T10:44:48;6.78;;;4.47;;
43883;SDS011;29544;52.018;5.810;2022-08-16T10:47:14;6.88;;;4.75;;
43883;SDS011;29544;52.018;5.810;2022-08-16T10:49:39;6.45;;;5.10;;
43883;SDS011;29544;52.018;5.810;2022-08-16T10:52:05;10.85;;;5.32;;
43883;SDS011;29544;52.018;5.810;2022-08-16T10:54:31;7.00;;;5.18;;
43883;SDS011;29544;52.018;5.810;2022-08-16T10:56:58;5.68;;;4.70;;
43883;SDS011;29544;52.018;5.810;2022-08-16T10:59:25;7.63;;;5.05;;
43883;SDS011;29544;52.018;5.810;2022-08-16T11:01:51;8.18;;;4.93;;
43883;SDS011;29544;52.018;5.810;2022-08-16T11:04:17;6.50;;;5.07;;
43883;SDS011;29544;52.018;5.810;2022-08-16T11:06:43;6.90;;;4.82;;
43883;SDS011;29544;52.018;5.810;2022-08-16T11:09:08;6.72;;;4.68;;
43883;SDS011;29544;52.018;5.810;2022-08-16T11:11:34;7.47;;;5.15;;
43883;SDS011;29544;52.018;5.810;2022-08-16T11:14:00;8.13;;;4.80;;
43883;SDS011;29544;52.018;5.810;2022-08-16T11:16:26;6.10;;;4.78;;
43883;SDS011;29544;52.018;5.810;2022-08-16T11:18:55;5.70;;;4.85;;
43883;SDS011;29544;52.018;5.810;2022-08-16T11:21:21;6.80;;;5.35;;
43883;SDS011;29544;52.018;5.810;2022-08-16T11:23:50;10.80;;;5.03;;
43883;SDS011;29544;52.018;5.810;2022-08-16T11:26:17;10.55;;;4.63;;
43883;SDS011;29544;52.018;5.810;2022-08-16T11:28:43;10.55;;;5.57;;
43883;SDS011;29544;52.018;5.810;2022-08-16T11:31:09;6.78;;;5.20;;
43883;SDS011;29544;52.018;5.810;2022-08-16T11:33:35;7.57;;;4.90;;
43883;SDS011;29544;52.018;5.810;2022-08-16T11:36:01;9.43;;;5.40;;
43883;SDS011;29544;52.018;5.810;2022-08-16T11:40:54;9.77;;;5.30;;
43883;SDS011;29544;52.018;5.810;2022-08-16T11:43:23;11.77;;;5.60;;
43883;SDS011;29544;52.018;5.810;2022-08-16T11:45:53;5.90;;;4.30;;
43883;SDS011;29544;52.018;5.810;2022-08-16T11:48:21;7.95;;;4.80;;
43883;SDS011;29544;52.018;5.810;2022-08-16T11:50:48;9.88;;;4.97;;
43883;SDS011;29544;52.018;5.810;2022-08-16T11:53:14;7.75;;;4.35;;
43883;SDS011;29544;52.018;5.810;2022-08-16T11:58:07;9.07;;;5.20;;
43883;SDS011;29544;52.018;5.810;2022-08-16T12:00:34;10.88;;;5.50;;
43883;SDS011;29544;52.018;5.810;2022-08-16T12:03:01;6.78;;;4.93;;
43883;SDS011;29544;52.018;5.810;2022-08-16T12:05:27;9.98;;;5.10;;
43883;SDS011;29544;52.018;5.810;2022-08-16T12:10:19;6.38;;;5.47;;
43883;SDS011;29544;52.018;5.810;2022-08-16T12:12:46;8.40;;;5.25;;
43883;SDS011;29544;52.018;5.810;2022-08-16T12:15:12;5.88;;;5.03;;
43883;SDS011;29544;52.018;5.810;2022-08-16T12:17:40;7.60;;;4.90;;
43883;SDS011;29544;52.018;5.810;2022-08-16T12:20:08;5.95;;;4.45;;
43883;SDS011;29544;52.018;5.810;2022-08-16T12:22:37;5.93;;;4.68;;
43883;SDS011;29544;52.018;5.810;2022-08-16T12:25:07;6.30;;;4.53;;
43883;SDS011;29544;52.018;5.810;2022-08-16T12:27:36;9.30;;;4.93;;
43883;SDS011;29544;52.018;5.810;2022-08-16T12:30:03;6.78;;;4.72;;
43883;SDS011;29544;52.018;5.810;2022-08-16T12:32:30;7.57;;;5.38;;
43883;SDS011;29544;52.018;5.810;2022-08-16T12:34:55;10.30;;;5.45;;
43883;SDS011;29544;52.018;5.810;2022-08-16T12:37:22;7.70;;;5.05;;
43883;SDS011;29544;52.018;5.810;2022-08-16T12:39:48;6.88;;;4.28;;
43883;SDS011;29544;52.018;5.810;2022-08-16T12:42:14;6.38;;;4.93;;
43883;SDS011;29544;52.018;5.810;2022-08-16T12:44:43;8.25;;;4.65;;
43883;SDS011;29544;52.018;5.810;2022-08-16T12:47:10;5.75;;;4.45;;
43883;SDS011;29544;52.018;5.810;2022-08-16T12:49:55;9.13;;;5.18;;
43883;SDS011;29544;52.018;5.810;2022-08-16T12:52:20;6.05;;;4.78;;
43883;SDS011;29544;52.018;5.810;2022-08-16T12:54:46;7.78;;;4.97;;
43883;SDS011;29544;52.018;5.810;2022-08-16T12:57:12;9.10;;;5.10;;
43883;SDS011;29544;52.018;5.810;2022-08-16T12:59:37;7.93;;;5.20;;
43883;SDS011;29544;52.018;5.810;2022-08-16T13:02:04;7.00;;;4.60;;
43883;SDS011;29544;52.018;5.810;2022-08-16T13:04:31;7.07;;;4.78;;
43883;SDS011;29544;52.018;5.810;2022-08-16T13:06:58;7.28;;;4.85;;
43883;SDS011;29544;52.018;5.810;2022-08-16T13:09:24;5.80;;;4.90;;
43883;SDS011;29544;52.018;5.810;2022-08-16T13:12:02;5.63;;;4.53;;
43883;SDS011;29544;52.018;5.810;2022-08-16T13:14:39;7.90;;;4.75;;
43883;SDS011;29544;52.018;5.810;2022-08-16T13:17:12;7.88;;;5.05;;
43883;SDS011;29544;52.018;5.810;2022-08-16T13:19:40;6.78;;;4.75;;
43883;SDS011;29544;52.018;5.810;2022-08-16T13:22:05;6.03;;;4.72;;
43883;SDS011;29544;52.018;5.810;2022-08-16T13:24:31;7.18;;;4.50;;
43883;SDS011;29544;52.018;5.810;2022-08-16T13:26:57;8.38;;;5.18;;
43883;SDS011;29544;52.018;5.810;2022-08-16T13:29:23;6.32;;;4.30;;
43883;SDS011;29544;52.018;5.810;2022-08-16T13:31:48;5.97;;;4.70;;
43883;SDS011;29544;52.018;5.810;2022-08-16T13:34:14;4.82;;;4.38;;
43883;SDS011;29544;52.018;5.810;2022-08-16T13:36:41;9.45;;;5.38;;
43883;SDS011;29544;52.018;5.810;2022-08-16T13:41:33;5.72;;;5.13;;
43883;SDS011;29544;52.018;5.810;2022-08-16T13:44:00;7.72;;;5.50;;
43883;SDS011;29544;52.018;5.810;2022-08-16T13:48:53;7.50;;;4.87;;
43883;SDS011;29544;52.018;5.810;2022-08-16T13:51:18;6.78;;;4.68;;
43883;SDS011;29544;52.018;5.810;2022-08-16T13:53:48;6.63;;;4.30;;
43883;SDS011;29544;52.018;5.810;2022-08-16T13:56:17;6.28;;;4.53;;
43883;SDS011;29544;52.018;5.810;2022-08-16T13:58:43;5.40;;;4.32;;
43883;SDS011;29544;52.018;5.810;2022-08-16T14:01:09;6.32;;;4.85;;
43883;SDS011;29544;52.018;5.810;2022-08-16T14:03:38;9.05;;;5.18;;
43883;SDS011;29544;52.018;5.810;2022-08-16T14:06:06;7.60;;;4.43;;
43883;SDS011;29544;52.018;5.810;2022-08-16T14:08:32;5.43;;;4.53;;
43883;SDS011;29544;52.018;5.810;2022-08-16T14:10:57;6.30;;;4.03;;
43883;SDS011;29544;52.018;5.810;2022-08-16T14:13:23;7.88;;;4.35;;
43883;SDS011;29544;52.018;5.810;2022-08-16T14:15:49;5.35;;;4.13;;
43883;SDS011;29544;52.018;5.810;2022-08-16T14:18:15;6.68;;;4.43;;
43883;SDS011;29544;52.018;5.810;2022-08-16T14:20:40;6.05;;;4.35;;
43883;SDS011;29544;52.018;5.810;2022-08-16T14:23:06;9.13;;;4.35;;
43883;SDS011;29544;52.018;5.810;2022-08-16T14:25:32;5.35;;;4.43;;
43883;SDS011;29544;52.018;5.810;2022-08-16T14:27:57;4.97;;;4.15;;
43883;SDS011;29544;52.018;5.810;2022-08-16T14:30:23;6.57;;;4.07;;
43883;SDS011;29544;52.018;5.810;2022-08-16T14:32:50;5.70;;;4.20;;
43883;SDS011;29544;52.018;5.810;2022-08-16T14:35:18;8.70;;;4.72;;
43883;SDS011;29544;52.018;5.810;2022-08-16T14:37:46;11.35;;;4.47;;
43883;SDS011;29544;52.018;5.810;2022-08-16T14:40:14;9.13;;;4.57;;
43883;SDS011;29544;52.018;5.810;2022-08-16T14:42:41;7.93;;;5.28;;
43883;SDS011;29544;52.018;5.810;2022-08-16T14:45:08;12.88;;;5.40;;
43883;SDS011;29544;52.018;5.810;2022-08-16T14:47:34;18.45;;;7.40;;
43883;SDS011;29544;52.018;5.810;2022-08-16T14:50:05;15.40;;;6.63;;
43883;SDS011;29544;52.018;5.810;2022-08-16T14:52:33;27.00;;;8.57;;
43883;SDS011;29544;52.018;5.810;2022-08-16T14:54:59;27.58;;;10.02;;
43883;SDS011;29544;52.018;5.810;2022-08-16T14:57:24;26.45;;;9.85;;
43883;SDS011;29544;52.018;5.810;2022-08-16T14:59:50;26.80;;;10.35;;
43883;SDS011;29544;52.018;5.810;2022-08-16T15:02:19;27.38;;;9.80;;
43883;SDS011;29544;52.018;5.810;2022-08-16T15:04:47;25.33;;;9.48;;
43883;SDS011;29544;52.018;5.810;2022-08-16T15:07:13;27.70;;;8.98;;
43883;SDS011;29544;52.018;5.810;2022-08-16T15:09:40;23.83;;;8.30;;
43883;SDS011;29544;52.018;5.810;2022-08-16T15:12:08;18.67;;;8.60;;
43883;SDS011;29544;52.018;5.810;2022-08-16T15:14:38;22.02;;;7.93;;
43883;SDS011;29544;52.018;5.810;2022-08-16T15:17:04;18.05;;;8.25;;
43883;SDS011;29544;52.018;5.810;2022-08-16T15:19:30;19.92;;;7.72;;
43883;SDS011;29544;52.018;5.810;2022-08-16T15:21:56;24.83;;;8.23;;
43883;SDS011;29544;52.018;5.810;2022-08-16T15:26:48;21.65;;;8.02;;
43883;SDS011;29544;52.018;5.810;2022-08-16T15:29:13;21.02;;;8.15;;